sensor_id;sensor_type;location;lat;lon;timestamp;pressure;altitude;pressure_sealevel;temperature;humidity
13011;BME280;6786;57.632;11.962;2023-09-19T00:02:19;99067.84;;;21.18;75.89
13011;BME280;6786;57.632;11.962;2023-09-19T00:04:48;99064.50;;;21.16;75.91
13011;BME280;6786;57.632;11.962;2023-09-19T00:07:16;99048.38;;;21.16;76.20
13011;BME280;6786;57.632;11.962;2023-09-19T00:09:45;99031.41;;;21.16;76.11
13011;BME280;6786;57.632;11.962;2023-09-19T00:12:13;99039.94;;;21.19;75.97
13011;BME280;6786;57.632;11.962;2023-09-19T00:14:41;98961.13;;;20.77;76.18
13011;BME280;6786;57.632;11.962;2023-09-19T00:17:10;99043.53;;;21.26;75.96
13011;BME280;6786;57.632;11.962;2023-09-19T00:19:39;99050.59;;;21.27;75.58
13011;BME280;6786;57.632;11.962;2023-09-19T00:22:09;99056.97;;;21.26;75.55
13011;BME280;6786;57.632;11.962;2023-09-19T00:24:39;99044.81;;;21.30;75.45
13011;BME280;6786;57.632;11.962;2023-09-19T00:27:08;99043.53;;;21.26;75.64
13011;BME280;6786;57.632;11.962;2023-09-19T00:29:36;99039.84;;;21.27;75.54
13011;BME280;6786;57.632;11.962;2023-09-19T00:32:04;99031.78;;;21.27;75.95
13011;BME280;6786;57.632;11.962;2023-09-19T00:34:35;99025.75;;;21.25;75.73
13011;BME280;6786;57.632;11.962;2023-09-19T00:37:05;99015.38;;;21.22;75.72
13011;BME280;6786;57.632;11.962;2023-09-19T00:39:33;99020.75;;;21.22;75.83
13011;BME280;6786;57.632;11.962;2023-09-19T00:42:01;99012.03;;;21.20;75.95
13011;BME280;6786;57.632;11.962;2023-09-19T00:44:31;99014.09;;;21.18;76.07
13011;BME280;6786;57.632;11.962;2023-09-19T00:47:02;99010.75;;;21.16;76.22
13011;BME280;6786;57.632;11.962;2023-09-19T00:49:32;99003.75;;;21.15;76.26
13011;BME280;6786;57.632;11.962;2023-09-19T00:52:00;98995.69;;;21.15;76.49
13011;BME280;6786;57.632;11.962;2023-09-19T00:54:34;98996.69;;;21.14;76.35
13011;BME280;6786;57.632;11.962;2023-09-19T00:57:03;98996.69;;;21.14;76.23
13011;BME280;6786;57.632;11.962;2023-09-19T00:59:31;98993.00;;;21.15;76.25
13011;BME280;6786;57.632;11.962;2023-09-19T01:01:59;98975.66;;;21.18;76.23
13011;BME280;6786;57.632;11.962;2023-09-19T01:04:29;98976.50;;;21.18;76.16
13011;BME280;6786;57.632;11.962;2023-09-19T01:06:57;98965.75;;;21.18;76.23
13011;BME280;6786;57.632;11.962;2023-09-19T01:09:25;98970.28;;;21.18;76.14
13011;BME280;6786;57.632;11.962;2023-09-19T01:11:59;98966.13;;;21.15;76.37
13011;BME280;6786;57.632;11.962;2023-09-19T01:14:34;98969.06;;;21.20;76.21
13011;BME280;6786;57.632;11.962;2023-09-19T01:17:09;98961.66;;;21.22;75.99
13011;BME280;6786;57.632;11.962;2023-09-19T01:20:06;98961.25;;;21.25;76.54
13011;BME280;6786;57.632;11.962;2023-09-19T01:22:48;98943.50;;;21.24;76.34
13011;BME280;6786;57.632;11.962;2023-09-19T01:28:34;98922.38;;;21.21;76.12
13011;BME280;6786;57.632;11.962;2023-09-19T01:31:11;98940.53;;;21.19;76.36
13011;BME280;6786;57.632;11.962;2023-09-19T01:33:57;98928.25;;;21.10;76.61
13011;BME280;6786;57.632;11.962;2023-09-19T01:36:27;98929.91;;;21.11;76.48
13011;BME280;6786;57.632;11.962;2023-09-19T01:38:57;98926.84;;;21.14;76.35
13011;BME280;6786;57.632;11.962;2023-09-19T01:41:55;98925.19;;;21.13;76.86
13011;BME280;6786;57.632;11.962;2023-09-19T01:44:34;98922.69;;;21.12;76.40
13011;BME280;6786;57.632;11.962;2023-09-19T01:47:16;98914.44;;;21.13;76.85
13011;BME280;6786;57.632;11.962;2023-09-19T01:49:55;98909.06;;;21.13;76.52
13011;BME280;6786;57.632;11.962;2023-09-19T01:52:30;98918.97;;;21.13;76.36
13011;BME280;6786;57.632;11.962;2023-09-19T01:55:05;98909.06;;;21.13;76.48
13011;BME280;6786;57.632;11.962;2023-09-19T01:57:36;98910.91;;;21.13;76.34
13011;BME280;6786;57.632;11.962;2023-09-19T02:00:12;98903.69;;;21.13;76.57
13011;BME280;6786;57.632;11.962;2023-09-19T02:02:45;98899.97;;;21.14;76.35
13011;BME280;6786;57.632;11.962;2023-09-19T02:05:22;98889.22;;;21.14;76.65
13011;BME280;6786;57.632;11.962;2023-09-19T02:07:51;98885.94;;;21.12;76.38
13011;BME280;6786;57.632;11.962;2023-09-19T02:10:20;98881.34;;;21.13;76.34
13011;BME280;6786;57.632;11.962;2023-09-19T02:12:49;98869.81;;;21.12;76.91
13011;BME280;6786;57.632;11.962;2023-09-19T02:15:18;98861.94;;;21.11;76.83
13011;BME280;6786;57.632;11.962;2023-09-19T02:17:47;98864.44;;;21.12;76.69
13011;BME280;6786;57.632;11.962;2023-09-19T02:20:16;98866.09;;;21.13;76.95
13011;BME280;6786;57.632;11.962;2023-09-19T02:22:46;98861.75;;;21.12;76.81
13011;BME280;6786;57.632;11.962;2023-09-19T02:25:17;98861.56;;;21.14;76.90
13011;BME280;6786;57.632;11.962;2023-09-19T02:27:46;98858.69;;;21.15;76.47
13011;BME280;6786;57.632;11.962;2023-09-19T02:30:15;98861.34;;;21.15;76.89
13011;BME280;6786;57.632;11.962;2023-09-19T02:32:48;98857.00;;;21.14;76.53
13011;BME280;6786;57.632;11.962;2023-09-19T02:35:17;98846.25;;;21.14;76.60
13011;BME280;6786;57.632;11.962;2023-09-19T02:37:46;98839.22;;;21.13;76.62
13011;BME280;6786;57.632;11.962;2023-09-19T02:40:15;98802.94;;;20.96;76.85
13011;BME280;6786;57.632;11.962;2023-09-19T02:42:47;98830.13;;;21.14;76.55
13011;BME280;6786;57.632;11.962;2023-09-19T02:45:17;98827.84;;;21.11;76.65
13011;BME280;6786;57.632;11.962;2023-09-19T02:47:49;98828.47;;;21.13;76.88
13011;BME280;6786;57.632;11.962;2023-09-19T02:50:17;98825.78;;;21.13;76.65
13011;BME280;6786;57.632;11.962;2023-09-19T02:52:46;98823.09;;;21.13;76.81
13011;BME280;6786;57.632;11.962;2023-09-19T02:55:16;98810.72;;;21.12;76.70
13011;BME280;6786;57.632;11.962;2023-09-19T02:57:47;98812.38;;;21.13;76.94
13011;BME280;6786;57.632;11.962;2023-09-19T03:00:16;98817.72;;;21.13;76.67
13011;BME280;6786;57.632;11.962;2023-09-19T03:02:50;98814.84;;;21.15;76.64
13011;BME280;6786;57.632;11.962;2023-09-19T03:05:19;98763.41;;;20.90;76.77
13011;BME280;6786;57.632;11.962;2023-09-19T03:07:48;98796.25;;;21.13;76.99
13011;BME280;6786;57.632;11.962;2023-09-19T03:10:17;98802.47;;;21.14;76.67
13011;BME280;6786;57.632;11.962;2023-09-19T03:12:46;98797.09;;;21.14;76.97
13011;BME280;6786;57.632;11.962;2023-09-19T03:15:15;98758.28;;;20.95;76.57
13011;BME280;6786;57.632;11.962;2023-09-19T03:17:44;98783.47;;;21.15;76.63
13011;BME280;6786;57.632;11.962;2023-09-19T03:20:15;98773.09;;;21.12;77.00
13011;BME280;6786;57.632;11.962;2023-09-19T03:22:44;98783.19;;;21.10;76.76
13011;BME280;6786;57.632;11.962;2023-09-19T03:25:13;98768.13;;;21.09;77.14
13011;BME280;6786;57.632;11.962;2023-09-19T03:27:41;98771.41;;;21.11;76.71
13011;BME280;6786;57.632;11.962;2023-09-19T03:30:10;98678.91;;;20.65;77.00
13011;BME280;6786;57.632;11.962;2023-09-19T03:32:44;98725.41;;;20.93;77.14
13011;BME280;6786;57.632;11.962;2023-09-19T03:35:15;98760.69;;;21.11;76.98
13011;BME280;6786;57.632;11.962;2023-09-19T03:37:43;98754.69;;;21.09;77.06
13011;BME280;6786;57.632;11.962;2023-09-19T03:40:12;98764.78;;;21.07;76.94
13011;BME280;6786;57.632;11.962;2023-09-19T03:42:41;98768.13;;;21.09;77.16
13011;BME280;6786;57.632;11.962;2023-09-19T03:45:10;98763.56;;;21.10;77.23
13011;BME280;6786;57.632;11.962;2023-09-19T03:47:40;98756.53;;;21.09;76.83
13011;BME280;6786;57.632;11.962;2023-09-19T03:50:09;98755.69;;;21.08;77.18
13011;BME280;6786;57.632;11.962;2023-09-19T03:52:39;98755.69;;;21.08;76.90
13011;BME280;6786;57.632;11.962;2023-09-19T03:55:08;98759.03;;;21.10;76.88
13011;BME280;6786;57.632;11.962;2023-09-19T03:57:37;98752.63;;;21.11;76.79
13011;BME280;6786;57.632;11.962;2023-09-19T04:00:06;98749.94;;;21.11;77.04
13011;BME280;6786;57.632;11.962;2023-09-19T04:02:39;98744.56;;;21.11;77.01
13011;BME280;6786;57.632;11.962;2023-09-19T04:05:08;98753.00;;;21.08;77.03
13011;BME280;6786;57.632;11.962;2023-09-19T04:07:37;98744.56;;;21.11;77.08
13011;BME280;6786;57.632;11.962;2023-09-19T04:10:07;98762.34;;;21.12;76.98
13011;BME280;6786;57.632;11.962;2023-09-19T04:12:38;98739.19;;;21.11;76.99
13011;BME280;6786;57.632;11.962;2023-09-19T04:15:07;98740.47;;;21.15;76.70
13011;BME280;6786;57.632;11.962;2023-09-19T04:17:40;98738.41;;;21.17;76.90
13011;BME280;6786;57.632;11.962;2023-09-19T04:20:09;98741.75;;;21.19;76.67
13011;BME280;6786;57.632;11.962;2023-09-19T04:22:38;98739.69;;;21.21;76.74
13011;BME280;6786;57.632;11.962;2023-09-19T04:25:08;98744.03;;;21.22;76.37
13011;BME280;6786;57.632;11.962;2023-09-19T04:27:37;98729.34;;;21.18;76.79
13011;BME280;6786;57.632;11.962;2023-09-19T04:30:06;98742.19;;;21.23;76.49
13011;BME280;6786;57.632;11.962;2023-09-19T04:32:37;98750.44;;;21.21;76.49
13011;BME280;6786;57.632;11.962;2023-09-19T04:35:07;98737.00;;;21.21;76.58
13011;BME280;6786;57.632;11.962;2023-09-19T04:37:37;98734.47;;;21.13;76.76
13011;BME280;6786;57.632;11.962;2023-09-19T04:40:09;98747.13;;;21.19;77.01
13011;BME280;6786;57.632;11.962;2023-09-19T04:42:41;98760.78;;;21.24;76.77
13011;BME280;6786;57.632;11.962;2023-09-19T04:45:10;98752.09;;;21.22;76.94
13011;BME280;6786;57.632;11.962;2023-09-19T04:47:38;98766.56;;;21.21;76.97
13011;BME280;6786;57.632;11.962;2023-09-19T04:50:08;98768.22;;;21.22;76.75
13011;BME280;6786;57.632;11.962;2023-09-19T04:52:41;98777.31;;;21.21;76.51
13011;BME280;6786;57.632;11.962;2023-09-19T04:55:14;98778.13;;;21.22;76.61
13011;BME280;6786;57.632;11.962;2023-09-19T04:57:44;98782.69;;;21.21;76.22
13011;BME280;6786;57.632;11.962;2023-09-19T05:00:14;98787.22;;;21.21;76.44
13011;BME280;6786;57.632;11.962;2023-09-19T05:02:43;98795.84;;;21.16;76.67
13011;BME280;6786;57.632;11.962;2023-09-19T05:05:12;98793.81;;;21.18;76.29
13011;BME280;6786;57.632;11.962;2023-09-19T05:07:42;98801.22;;;21.16;76.75
13011;BME280;6786;57.632;11.962;2023-09-19T05:10:10;98804.94;;;21.15;76.39
13011;BME280;6786;57.632;11.962;2023-09-19T05:12:41;98802.25;;;21.15;76.40
13011;BME280;6786;57.632;11.962;2023-09-19T05:15:12;98810.72;;;21.12;76.42
13011;BME280;6786;57.632;11.962;2023-09-19T05:17:41;98801.63;;;21.13;76.34
13011;BME280;6786;57.632;11.962;2023-09-19T05:20:10;98804.31;;;21.13;76.37
13011;BME280;6786;57.632;11.962;2023-09-19T05:22:41;98809.69;;;21.13;76.20
13011;BME280;6786;57.632;11.962;2023-09-19T05:25:10;98806.16;;;21.13;76.54
13011;BME280;6786;57.632;11.962;2023-09-19T05:27:44;98805.56;;;21.17;76.35
13011;BME280;6786;57.632;11.962;2023-09-19T05:30:12;98795.84;;;21.16;76.09
13011;BME280;6786;57.632;11.962;2023-09-19T05:32:42;98805.38;;;21.19;76.00
13011;BME280;6786;57.632;11.962;2023-09-19T05:35:10;98821.50;;;21.19;75.75
13011;BME280;6786;57.632;11.962;2023-09-19T05:37:39;98799.56;;;21.15;75.81
13011;BME280;6786;57.632;11.962;2023-09-19T05:40:09;98818.00;;;21.18;75.97
13011;BME280;6786;57.632;11.962;2023-09-19T05:42:38;98820.69;;;21.18;75.75
13011;BME280;6786;57.632;11.962;2023-09-19T05:45:10;98810.19;;;21.02;75.68
13011;BME280;6786;57.632;11.962;2023-09-19T05:47:39;98840.47;;;21.17;75.71
13011;BME280;6786;57.632;11.962;2023-09-19T05:50:12;98846.50;;;21.19;75.96
13011;BME280;6786;57.632;11.962;2023-09-19T05:52:41;98831.34;;;21.12;75.70
13011;BME280;6786;57.632;11.962;2023-09-19T05:55:11;98842.16;;;21.18;75.83
13011;BME280;6786;57.632;11.962;2023-09-19T05:57:39;98843.81;;;21.19;75.70
13011;BME280;6786;57.632;11.962;2023-09-19T06:00:12;98851.22;;;21.17;75.68
13011;BME280;6786;57.632;11.962;2023-09-19T06:02:40;98857.44;;;21.18;75.54
13011;BME280;6786;57.632;11.962;2023-09-19T06:05:11;98863.66;;;21.18;75.75
13011;BME280;6786;57.632;11.962;2023-09-19T06:07:39;98871.72;;;21.18;75.40
13011;BME280;6786;57.632;11.962;2023-09-19T06:10:09;98868.00;;;21.19;75.38
13011;BME280;6786;57.632;11.962;2023-09-19T06:12:38;98879.78;;;21.18;75.46
13011;BME280;6786;57.632;11.962;2023-09-19T06:15:06;98878.56;;;21.21;75.38
13011;BME280;6786;57.632;11.962;2023-09-19T06:17:37;98883.09;;;21.20;75.31
13011;BME280;6786;57.632;11.962;2023-09-19T06:20:06;98881.81;;;21.16;75.49
13011;BME280;6786;57.632;11.962;2023-09-19T06:22:40;98877.72;;;21.20;75.55
13011;BME280;6786;57.632;11.962;2023-09-19T06:25:09;98898.41;;;21.20;75.62
13011;BME280;6786;57.632;11.962;2023-09-19T06:27:39;98895.91;;;21.18;75.28
13011;BME280;6786;57.632;11.962;2023-09-19T06:30:09;98892.56;;;21.16;75.48
13011;BME280;6786;57.632;11.962;2023-09-19T06:32:39;98897.56;;;21.19;75.56
13011;BME280;6786;57.632;11.962;2023-09-19T06:35:11;98899.59;;;21.17;75.03
13011;BME280;6786;57.632;11.962;2023-09-19T06:37:41;98892.56;;;21.16;75.06
13011;BME280;6786;57.632;11.962;2023-09-19T06:40:10;98821.44;;;20.70;75.22
13011;BME280;6786;57.632;11.962;2023-09-19T06:42:41;98907.66;;;21.17;75.01
13011;BME280;6786;57.632;11.962;2023-09-19T06:45:09;98912.00;;;21.18;75.43
13011;BME280;6786;57.632;11.962;2023-09-19T06:47:41;98911.19;;;21.18;75.06
13011;BME280;6786;57.632;11.962;2023-09-19T06:50:10;98913.03;;;21.17;75.23
13011;BME280;6786;57.632;11.962;2023-09-19T06:52:41;98915.69;;;21.17;75.19
13011;BME280;6786;57.632;11.962;2023-09-19T06:55:09;98908.28;;;21.19;75.07
13011;BME280;6786;57.632;11.962;2023-09-19T06:57:40;98917.38;;;21.18;75.26
13011;BME280;6786;57.632;11.962;2023-09-19T07:00:11;98917.38;;;21.18;75.14
13011;BME280;6786;57.632;11.962;2023-09-19T07:02:54;98918.41;;;21.17;75.24
13011;BME280;6786;57.632;11.962;2023-09-19T07:05:23;98922.50;;;21.13;75.00
13011;BME280;6786;57.632;11.962;2023-09-19T07:07:51;98925.56;;;21.10;75.48
13011;BME280;6786;57.632;11.962;2023-09-19T07:10:19;98929.28;;;21.09;75.34
13011;BME280;6786;57.632;11.962;2023-09-19T07:12:55;98930.94;;;21.10;75.16
13011;BME280;6786;57.632;11.962;2023-09-19T07:15:23;98929.91;;;21.11;75.28
13011;BME280;6786;57.632;11.962;2023-09-19T07:17:53;98931.59;;;21.12;75.36
13011;BME280;6786;57.632;11.962;2023-09-19T07:20:24;98934.28;;;21.12;75.16
13011;BME280;6786;57.632;11.962;2023-09-19T07:22:53;98932.59;;;21.11;75.17
13011;BME280;6786;57.632;11.962;2023-09-19T07:25:22;98937.97;;;21.11;75.31
13011;BME280;6786;57.632;11.962;2023-09-19T07:27:51;98934.28;;;21.12;74.94
13011;BME280;6786;57.632;11.962;2023-09-19T07:30:19;98932.59;;;21.11;75.30
13011;BME280;6786;57.632;11.962;2023-09-19T07:32:48;98918.97;;;21.13;74.92
13011;BME280;6786;57.632;11.962;2023-09-19T07:35:18;98927.22;;;21.11;75.10
13011;BME280;6786;57.632;11.962;2023-09-19T07:37:47;98935.09;;;21.13;74.77
13011;BME280;6786;57.632;11.962;2023-09-19T07:40:18;98945.84;;;21.13;74.82
13011;BME280;6786;57.632;11.962;2023-09-19T07:42:48;98950.38;;;21.12;74.80
13011;BME280;6786;57.632;11.962;2023-09-19T07:45:17;98959.44;;;21.11;74.94
13011;BME280;6786;57.632;11.962;2023-09-19T07:47:46;98961.13;;;21.12;74.94
13011;BME280;6786;57.632;11.962;2023-09-19T07:50:15;98950.78;;;21.09;74.87
13011;BME280;6786;57.632;11.962;2023-09-19T07:52:47;98954.28;;;21.10;74.72
13011;BME280;6786;57.632;11.962;2023-09-19T07:55:17;98949.75;;;21.10;74.87
13011;BME280;6786;57.632;11.962;2023-09-19T07:57:50;98952.44;;;21.10;74.79
13011;BME280;6786;57.632;11.962;2023-09-19T08:00:18;98969.38;;;21.11;74.98
13011;BME280;6786;57.632;11.962;2023-09-19T08:02:46;98955.13;;;21.10;74.89
13011;BME280;6786;57.632;11.962;2023-09-19T08:05:24;98964.81;;;21.11;74.96
13011;BME280;6786;57.632;11.962;2023-09-19T08:07:54;98958.19;;;21.07;74.66
13011;BME280;6786;57.632;11.962;2023-09-19T08:10:23;98961.53;;;21.09;74.72
13011;BME280;6786;57.632;11.962;2023-09-19T08:12:54;98956.16;;;21.09;74.57
13011;BME280;6786;57.632;11.962;2023-09-19T08:15:25;98970.56;;;21.08;74.76
13011;BME280;6786;57.632;11.962;2023-09-19T08:17:53;98961.53;;;21.09;74.46
13011;BME280;6786;57.632;11.962;2023-09-19T08:20:22;98957.72;;;21.04;74.91
13011;BME280;6786;57.632;11.962;2023-09-19T08:22:50;98962.28;;;21.03;74.95
13011;BME280;6786;57.632;11.962;2023-09-19T08:25:22;98972.38;;;21.01;74.60
13011;BME280;6786;57.632;11.962;2023-09-19T08:27:52;98968.03;;;21.00;74.71
13011;BME280;6786;57.632;11.962;2023-09-19T08:30:21;98982.06;;;21.02;74.69
13011;BME280;6786;57.632;11.962;2023-09-19T08:32:52;98996.53;;;21.01;74.73
13011;BME280;6786;57.632;11.962;2023-09-19T08:35:25;98994.88;;;21.00;74.84
13011;BME280;6786;57.632;11.962;2023-09-19T08:37:53;98998.19;;;21.02;74.55
13011;BME280;6786;57.632;11.962;2023-09-19T08:40:23;98996.53;;;21.01;74.98
13011;BME280;6786;57.632;11.962;2023-09-19T08:42:57;99009.78;;;21.03;74.79
13011;BME280;6786;57.632;11.962;2023-09-19T08:45:26;99008.94;;;21.02;74.47
13011;BME280;6786;57.632;11.962;2023-09-19T08:48:02;99003.56;;;21.02;74.62
13011;BME280;6786;57.632;11.962;2023-09-19T08:50:41;99017.00;;;21.02;74.40
13011;BME280;6786;57.632;11.962;2023-09-19T08:53:15;99011.38;;;20.97;74.67
13011;BME280;6786;57.632;11.962;2023-09-19T08:55:51;99025.84;;;20.96;74.33
13011;BME280;6786;57.632;11.962;2023-09-19T08:58:26;99019.69;;;21.02;74.33
13011;BME280;6786;57.632;11.962;2023-09-19T09:00:57;99011.81;;;21.01;74.62
13011;BME280;6786;57.632;11.962;2023-09-19T09:03:32;99023.41;;;21.01;74.27
13011;BME280;6786;57.632;11.962;2023-09-19T09:06:01;99014.50;;;21.01;74.24
13011;BME280;6786;57.632;11.962;2023-09-19T09:08:31;99024.44;;;21.00;74.12
13011;BME280;6786;57.632;11.962;2023-09-19T09:11:01;99018.41;;;20.98;74.51
13011;BME280;6786;57.632;11.962;2023-09-19T09:13:30;99019.69;;;21.02;74.12
13011;BME280;6786;57.632;11.962;2023-09-19T09:15:59;99021.75;;;21.00;74.41
13011;BME280;6786;57.632;11.962;2023-09-19T09:18:28;99028.78;;;21.01;74.14
13011;BME280;6786;57.632;11.962;2023-09-19T09:20:57;99025.47;;;20.99;74.39
13011;BME280;6786;57.632;11.962;2023-09-19T09:23:27;99022.13;;;20.97;74.48
13011;BME280;6786;57.632;11.962;2023-09-19T09:25:56;99017.41;;;20.99;74.42
13011;BME280;6786;57.632;11.962;2023-09-19T09:28:31;99021.28;;;20.97;74.36
13011;BME280;6786;57.632;11.962;2023-09-19T09:31:00;99032.88;;;20.97;74.33
13011;BME280;6786;57.632;11.962;2023-09-19T09:33:29;99036.59;;;20.96;74.27
13011;BME280;6786;57.632;11.962;2023-09-19T09:35:59;99014.72;;;20.99;74.07
13011;BME280;6786;57.632;11.962;2023-09-19T09:38:30;99025.47;;;20.99;74.24
13011;BME280;6786;57.632;11.962;2023-09-19T09:41:10;99050.25;;;21.01;73.92
13011;BME280;6786;57.632;11.962;2023-09-19T09:43:44;99028.97;;;21.00;73.91
13011;BME280;6786;57.632;11.962;2023-09-19T09:46:16;98997.50;;;20.79;74.00
13011;BME280;6786;57.632;11.962;2023-09-19T09:49:03;99044.25;;;20.99;73.88
13011;BME280;6786;57.632;11.962;2023-09-19T09:51:49;99034.13;;;21.01;73.78
13011;BME280;6786;57.632;11.962;2023-09-19T09:54:28;99037.84;;;21.00;73.67
13011;BME280;6786;57.632;11.962;2023-09-19T09:57:02;99053.97;;;21.00;73.92
13011;BME280;6786;57.632;11.962;2023-09-19T09:59:49;99052.31;;;20.99;73.79
13011;BME280;6786;57.632;11.962;2023-09-19T10:02:25;99048.97;;;20.97;73.83
13011;BME280;6786;57.632;11.962;2023-09-19T10:04:57;99058.41;;;20.93;73.82
13011;BME280;6786;57.632;11.962;2023-09-19T10:07:42;99073.16;;;20.97;73.97
13011;BME280;6786;57.632;11.962;2023-09-19T10:10:30;99068.81;;;20.96;73.69
13011;BME280;6786;57.632;11.962;2023-09-19T10:13:06;99067.78;;;20.97;73.58
13011;BME280;6786;57.632;11.962;2023-09-19T10:15:42;99067.13;;;20.95;73.47
13011;BME280;6786;57.632;11.962;2023-09-19T10:18:20;99059.72;;;20.97;73.61
13011;BME280;6786;57.632;11.962;2023-09-19T10:20:49;99084.91;;;20.96;73.45
13011;BME280;6786;57.632;11.962;2023-09-19T10:23:18;99069.63;;;20.97;73.46
13011;BME280;6786;57.632;11.962;2023-09-19T10:25:50;99073.34;;;20.96;73.85
13011;BME280;6786;57.632;11.962;2023-09-19T10:28:20;99071.50;;;20.96;73.66
13011;BME280;6786;57.632;11.962;2023-09-19T10:30:52;99075.00;;;20.97;73.72
13011;BME280;6786;57.632;11.962;2023-09-19T10:33:21;99082.88;;;20.98;73.51
13011;BME280;6786;57.632;11.962;2023-09-19T10:35:53;99075.84;;;20.97;73.42
13011;BME280;6786;57.632;11.962;2023-09-19T10:38:23;99084.53;;;20.99;73.40
13011;BME280;6786;57.632;11.962;2023-09-19T10:40:53;99087.25;;;20.99;73.26
13011;BME280;6786;57.632;11.962;2023-09-19T10:43:28;99081.22;;;20.97;73.29
13011;BME280;6786;57.632;11.962;2023-09-19T10:46:08;99091.94;;;20.97;73.26
13011;BME280;6786;57.632;11.962;2023-09-19T10:48:40;99093.59;;;20.98;73.51
13011;BME280;6786;57.632;11.962;2023-09-19T10:51:13;99089.91;;;20.99;73.43
13011;BME280;6786;57.632;11.962;2023-09-19T10:53:46;99090.09;;;20.98;73.11
13011;BME280;6786;57.632;11.962;2023-09-19T10:56:19;99093.59;;;20.98;73.06
13011;BME280;6786;57.632;11.962;2023-09-19T10:58:49;99102.69;;;20.97;73.36
13011;BME280;6786;57.632;11.962;2023-09-19T11:01:19;99106.41;;;20.96;73.52
13011;BME280;6786;57.632;11.962;2023-09-19T11:03:48;99118.81;;;20.97;73.18
13011;BME280;6786;57.632;11.962;2023-09-19T11:06:39;99100.44;;;20.86;73.08
13011;BME280;6786;57.632;11.962;2023-09-19T11:09:08;99131.19;;;20.98;72.96
13011;BME280;6786;57.632;11.962;2023-09-19T11:11:50;99116.13;;;20.97;73.37
13011;BME280;6786;57.632;11.962;2023-09-19T11:14:40;99124.19;;;20.97;72.94
13011;BME280;6786;57.632;11.962;2023-09-19T11:17:41;99117.16;;;20.96;72.73
13011;BME280;6786;57.632;11.962;2023-09-19T11:20:23;99115.47;;;20.95;72.73
13011;BME280;6786;57.632;11.962;2023-09-19T11:23:18;99117.50;;;20.93;72.81
13011;BME280;6786;57.632;11.962;2023-09-19T11:25:49;99121.88;;;20.94;73.10
13011;BME280;6786;57.632;11.962;2023-09-19T11:28:35;99133.25;;;20.96;72.85
13011;BME280;6786;57.632;11.962;2023-09-19T11:34:47;99127.91;;;20.96;72.45
13011;BME280;6786;57.632;11.962;2023-09-19T11:40:38;99135.28;;;20.94;72.52
13011;BME280;6786;57.632;11.962;2023-09-19T11:43:31;99139.44;;;20.97;72.60
13011;BME280;6786;57.632;11.962;2023-09-19T11:46:09;99135.94;;;20.96;72.48
13011;BME280;6786;57.632;11.962;2023-09-19T11:48:40;99149.38;;;20.96;72.56
13011;BME280;6786;57.632;11.962;2023-09-19T11:51:14;99151.03;;;20.97;72.88
13011;BME280;6786;57.632;11.962;2023-09-19T11:53:51;99159.94;;;20.98;72.43
13011;BME280;6786;57.632;11.962;2023-09-19T11:56:21;99174.19;;;20.98;72.44
13011;BME280;6786;57.632;11.962;2023-09-19T11:58:52;99167.16;;;20.97;72.52
13011;BME280;6786;57.632;11.962;2023-09-19T12:01:26;99169.19;;;20.95;72.71
13011;BME280;6786;57.632;11.962;2023-09-19T12:03:58;99167.16;;;20.97;72.47
13011;BME280;6786;57.632;11.962;2023-09-19T12:06:29;99172.53;;;20.97;72.59
13011;BME280;6786;57.632;11.962;2023-09-19T12:08:59;99172.53;;;20.97;72.52
13011;BME280;6786;57.632;11.962;2023-09-19T12:11:33;99170.88;;;20.96;72.45
13011;BME280;6786;57.632;11.962;2023-09-19T12:14:09;99174.53;;;20.95;72.51
13011;BME280;6786;57.632;11.962;2023-09-19T12:16:38;99167.34;;;20.96;72.38
13011;BME280;6786;57.632;11.962;2023-09-19T12:19:21;99172.53;;;20.97;72.50
13011;BME280;6786;57.632;11.962;2023-09-19T12:22:01;99167.16;;;20.97;72.16
13011;BME280;6786;57.632;11.962;2023-09-19T12:24:32;99178.91;;;20.96;72.27
13011;BME280;6786;57.632;11.962;2023-09-19T12:27:05;99186.13;;;20.96;72.29
13011;BME280;6786;57.632;11.962;2023-09-19T12:29:44;99174.88;;;20.92;72.10
13011;BME280;6786;57.632;11.962;2023-09-19T12:32:12;99180.56;;;20.97;72.63
13011;BME280;6786;57.632;11.962;2023-09-19T12:34:50;99176.22;;;20.96;72.15
13011;BME280;6786;57.632;11.962;2023-09-19T12:37:21;99163.81;;;20.95;72.45
13011;BME280;6786;57.632;11.962;2023-09-19T12:40:03;99176.22;;;20.96;72.29
13011;BME280;6786;57.632;11.962;2023-09-19T12:42:42;99192.34;;;20.96;72.26
13011;BME280;6786;57.632;11.962;2023-09-19T12:45:11;99189.00;;;20.94;72.14
13011;BME280;6786;57.632;11.962;2023-09-19T12:50:59;99174.34;;;20.97;71.60
13011;BME280;6786;57.632;11.962;2023-09-19T12:53:28;99164.66;;;20.96;72.22
13011;BME280;6786;57.632;11.962;2023-09-19T12:56:00;99152.78;;;20.90;72.25
13011;BME280;6786;57.632;11.962;2023-09-19T12:58:28;99170.88;;;20.96;72.03
13011;BME280;6786;57.632;11.962;2023-09-19T13:00:59;99172.53;;;20.97;72.26
13011;BME280;6786;57.632;11.962;2023-09-19T13:03:28;99176.06;;;20.98;72.29
13011;BME280;6786;57.632;11.962;2023-09-19T13:05:59;99160.94;;;20.97;72.18
13011;BME280;6786;57.632;11.962;2023-09-19T13:08:31;99160.13;;;20.96;72.23
13011;BME280;6786;57.632;11.962;2023-09-19T13:11:13;99147.69;;;20.95;71.96
13011;BME280;6786;57.632;11.962;2023-09-19T13:13:45;99154.56;;;20.98;72.17
13011;BME280;6786;57.632;11.962;2023-09-19T13:16:17;99151.03;;;20.97;71.98
13011;BME280;6786;57.632;11.962;2023-09-19T13:18:51;99153.06;;;20.95;71.95
13011;BME280;6786;57.632;11.962;2023-09-19T13:21:30;99158.06;;;20.98;71.81
13011;BME280;6786;57.632;11.962;2023-09-19T13:24:23;99154.75;;;20.96;71.86
13011;BME280;6786;57.632;11.962;2023-09-19T13:26:54;99154.75;;;20.96;72.10
13011;BME280;6786;57.632;11.962;2023-09-19T13:29:22;99165.50;;;20.96;72.00
13011;BME280;6786;57.632;11.962;2023-09-19T13:31:51;99146.88;;;20.95;72.04
13011;BME280;6786;57.632;11.962;2023-09-19T13:34:20;99148.72;;;20.94;72.25
13011;BME280;6786;57.632;11.962;2023-09-19T13:36:48;99148.72;;;20.94;72.03
13011;BME280;6786;57.632;11.962;2023-09-19T13:39:17;99141.00;;;20.91;71.83